Rex, Georgia
Current Conditions -  °F | °C
As of 10:52 AM on Thursday 29 Jan 2015 (Local Time) from KATL Reporting Station
Broken Clouds Broken Clouds  
Wind Chill: 41°   Ceiling: 20000
Heat Index: 46°   Visibility: 10mi
Dew Point: 28°   Wind: 10mph
Humidity: 50%   Direction: 200°SSW
Pressure: 30.3"   Gusts: NA
Location:  33.59°N, 84.27°W
Report Text: KATL 291552Z 20009KT 10SM FEW150 BKN200 BKN250 08/M02 A3030 RMK AO2 SLP266 T00781022
Loading
Personal Weather Stations






























Interactive Weather Map New forecast layout! Learn more

10-Day Weather Forecast

Advertisements
Track Severe Weather on mobile